sensor_id;sensor_type;location;lat;lon;timestamp;pressure;altitude;pressure_sealevel;temperature;humidity
71384;BME280;61466;52.166;5.004;2023-01-10T00:02:04;101236.47;;;9.36;62.11
71384;BME280;61466;52.166;5.004;2023-01-10T00:04:30;101248.75;;;9.37;62.28
71384;BME280;61466;52.166;5.004;2023-01-10T00:06:55;101238.06;;;9.37;62.22
71384;BME280;61466;52.166;5.004;2023-01-10T00:09:21;101243.66;;;9.35;62.31
71384;BME280;61466;52.166;5.004;2023-01-10T00:11:46;101251.66;;;9.35;62.43
71384;BME280;61466;52.166;5.004;2023-01-10T00:14:30;101252.22;;;9.37;62.27
71384;BME280;61466;52.166;5.004;2023-01-10T00:17:00;101258.69;;;9.41;62.26
71384;BME280;61466;52.166;5.004;2023-01-10T00:19:25;101253.63;;;9.40;62.35
71384;BME280;61466;52.166;5.004;2023-01-10T00:21:50;101255.78;;;9.43;62.32
71384;BME280;61466;52.166;5.004;2023-01-10T00:24:16;101267.28;;;9.43;62.33
71384;BME280;61466;52.166;5.004;2023-01-10T00:26:45;101262.72;;;9.44;62.32
71384;BME280;61466;52.166;5.004;2023-01-10T00:29:16;101266.78;;;9.47;62.42
71384;BME280;61466;52.166;5.004;2023-01-10T00:31:41;101269.19;;;9.48;62.58
71384;BME280;61466;52.166;5.004;2023-01-10T00:34:06;101275.94;;;9.51;62.34
71384;BME280;61466;52.166;5.004;2023-01-10T00:36:32;101273.56;;;9.54;62.40
71384;BME280;61466;52.166;5.004;2023-01-10T00:38:57;101280.03;;;9.58;62.46
71384;BME280;61466;52.166;5.004;2023-01-10T00:41:22;101287.47;;;9.56;62.33
71384;BME280;61466;52.166;5.004;2023-01-10T00:44:06;101286.69;;;9.56;62.34
71384;BME280;61466;52.166;5.004;2023-01-10T00:46:33;101288.78;;;9.54;62.43
71384;BME280;61466;52.166;5.004;2023-01-10T00:48:58;101299.22;;;9.55;62.56
71384;BME280;61466;52.166;5.004;2023-01-10T00:51:24;101309.34;;;9.53;62.60
71384;BME280;61466;52.166;5.004;2023-01-10T00:53:49;101313.38;;;9.56;62.62
71384;BME280;61466;52.166;5.004;2023-01-10T00:56:15;101318.72;;;9.56;63.00
71384;BME280;61466;52.166;5.004;2023-01-10T00:58:40;101325.09;;;9.55;63.05
71384;BME280;61466;52.166;5.004;2023-01-10T01:01:05;101303.75;;;9.55;63.11
71384;BME280;61466;52.166;5.004;2023-01-10T01:03:31;101314.75;;;9.58;63.42
71384;BME280;61466;52.166;5.004;2023-01-10T01:05:56;101319.84;;;9.60;63.33
71384;BME280;61466;52.166;5.004;2023-01-10T01:08:21;101310.78;;;9.61;63.53
71384;BME280;61466;52.166;5.004;2023-01-10T01:10:47;101315.63;;;9.64;63.75
71384;BME280;61466;52.166;5.004;2023-01-10T01:13:19;101316.13;;;9.61;63.91
71384;BME280;61466;52.166;5.004;2023-01-10T01:15:46;101322.59;;;9.65;63.85
71384;BME280;61466;52.166;5.004;2023-01-10T01:18:14;101327.34;;;9.63;63.97
71384;BME280;61466;52.166;5.004;2023-01-10T01:20:41;101331.91;;;9.62;64.25
71384;BME280;61466;52.166;5.004;2023-01-10T01:23:07;101336.44;;;9.62;64.53
71384;BME280;61466;52.166;5.004;2023-01-10T01:25:33;101326.00;;;9.60;64.66
71384;BME280;61466;52.166;5.004;2023-01-10T01:27:58;101335.38;;;9.63;64.72
71384;BME280;61466;52.166;5.004;2023-01-10T01:30:24;101324.41;;;9.59;64.85
71384;BME280;61466;52.166;5.004;2023-01-10T01:32:49;101349.28;;;9.65;64.91
71384;BME280;61466;52.166;5.004;2023-01-10T01:35:15;101347.69;;;9.64;65.11
71384;BME280;61466;52.166;5.004;2023-01-10T01:37:42;101346.06;;;9.63;65.01
71384;BME280;61466;52.166;5.004;2023-01-10T01:40:15;101350.59;;;9.62;65.48
71384;BME280;61466;52.166;5.004;2023-01-10T01:42:41;101361.53;;;9.61;65.29
71384;BME280;61466;52.166;5.004;2023-01-10T01:47:34;101363.63;;;9.59;65.51
71384;BME280;61466;52.166;5.004;2023-01-10T01:50:03;101363.06;;;9.57;65.86
71384;BME280;61466;52.166;5.004;2023-01-10T01:52:32;101363.06;;;9.57;65.87
71384;BME280;61466;52.166;5.004;2023-01-10T01:55:00;101367.94;;;9.60;65.91
71384;BME280;61466;52.166;5.004;2023-01-10T01:57:28;101376.19;;;9.58;65.91
71384;BME280;61466;52.166;5.004;2023-01-10T01:59:56;101370.84;;;9.58;65.88
71384;BME280;61466;52.166;5.004;2023-01-10T02:02:30;101371.63;;;9.59;65.90
71384;BME280;61466;52.166;5.004;2023-01-10T02:05:07;101375.94;;;9.60;65.89
71384;BME280;61466;52.166;5.004;2023-01-10T02:07:36;101376.19;;;9.58;65.92
71384;BME280;61466;52.166;5.004;2023-01-10T02:10:08;101372.19;;;9.61;65.80
71384;BME280;61466;52.166;5.004;2023-01-10T02:12:35;101372.78;;;9.63;65.66
71384;BME280;61466;52.166;5.004;2023-01-10T02:15:02;101376.00;;;9.65;65.82
71384;BME280;61466;52.166;5.004;2023-01-10T02:17:27;101375.03;;;9.71;65.65
71384;BME280;61466;52.166;5.004;2023-01-10T02:20:03;101375.59;;;9.73;65.72
71384;BME280;61466;52.166;5.004;2023-01-10T02:25:21;101373.16;;;9.72;65.61
71384;BME280;61466;52.166;5.004;2023-01-10T02:33:48;101372.94;;;9.73;65.41
71384;BME280;61466;52.166;5.004;2023-01-10T02:39:10;101366.28;;;9.76;65.22
71384;BME280;61466;52.166;5.004;2023-01-10T02:41:46;101377.19;;;9.74;65.11
71384;BME280;61466;52.166;5.004;2023-01-10T02:46:57;101389.53;;;9.75;64.92
71384;BME280;61466;52.166;5.004;2023-01-10T02:49:22;101382.00;;;9.72;64.90
71384;BME280;61466;52.166;5.004;2023-01-10T02:51:48;101381.44;;;9.70;65.16
71384;BME280;61466;52.166;5.004;2023-01-10T02:54:31;101387.25;;;9.67;65.30
71384;BME280;61466;52.166;5.004;2023-01-10T02:57:09;101384.59;;;9.67;65.22
71384;BME280;61466;52.166;5.004;2023-01-10T03:02:48;101396.34;;;9.66;65.17
71384;BME280;61466;52.166;5.004;2023-01-10T03:08:03;101398.75;;;9.68;65.23
71384;BME280;61466;52.166;5.004;2023-01-10T03:11:05;101405.88;;;9.62;65.28
71384;BME280;61466;52.166;5.004;2023-01-10T03:13:45;101412.03;;;9.62;65.14
71384;BME280;61466;52.166;5.004;2023-01-10T03:16:17;101409.88;;;9.59;65.20
71384;BME280;61466;52.166;5.004;2023-01-10T03:21:24;101415.50;;;9.63;65.19
71384;BME280;61466;52.166;5.004;2023-01-10T03:23:54;101414.22;;;9.66;65.34
71384;BME280;61466;52.166;5.004;2023-01-10T03:26:51;101441.19;;;9.64;65.50
71384;BME280;61466;52.166;5.004;2023-01-10T03:29:25;101448.88;;;9.60;65.62
71384;BME280;61466;52.166;5.004;2023-01-10T03:31:56;101440.63;;;9.62;65.76
71384;BME280;61466;52.166;5.004;2023-01-10T03:34:24;101448.88;;;9.60;65.94
71384;BME280;61466;52.166;5.004;2023-01-10T03:39:45;101457.44;;;9.62;66.02
71384;BME280;61466;52.166;5.004;2023-01-10T03:43:02;101465.22;;;9.64;66.24
71384;BME280;61466;52.166;5.004;2023-01-10T03:47:02;101461.97;;;9.62;66.05
71384;BME280;61466;52.166;5.004;2023-01-10T03:49:08;101462.44;;;9.59;66.22
71384;BME280;61466;52.166;5.004;2023-01-10T03:51:35;101472.34;;;9.58;66.02
71384;BME280;61466;52.166;5.004;2023-01-10T03:54:03;101481.00;;;9.66;65.76
71384;BME280;61466;52.166;5.004;2023-01-10T03:56:28;101487.63;;;9.63;65.67
71384;BME280;61466;52.166;5.004;2023-01-10T03:58:54;101471.03;;;9.61;65.83
71384;BME280;61466;52.166;5.004;2023-01-10T04:01:19;101474.19;;;9.58;65.83
71384;BME280;61466;52.166;5.004;2023-01-10T04:03:45;101492.09;;;9.74;65.51
71384;BME280;61466;52.166;5.004;2023-01-10T04:06:10;101494.84;;;9.62;65.86
71384;BME280;61466;52.166;5.004;2023-01-10T04:08:36;101497.75;;;9.61;65.78
71384;BME280;61466;52.166;5.004;2023-01-10T04:11:01;101499.38;;;9.62;65.76
71384;BME280;61466;52.166;5.004;2023-01-10T04:13:26;101499.84;;;9.59;65.71
71384;BME280;61466;52.166;5.004;2023-01-10T04:15:52;101497.19;;;9.59;65.64
71384;BME280;61466;52.166;5.004;2023-01-10T04:18:17;101500.69;;;9.59;65.44
71384;BME280;61466;52.166;5.004;2023-01-10T04:20:43;101495.00;;;9.56;65.57
71384;BME280;61466;52.166;5.004;2023-01-10T04:23:09;101493.38;;;9.55;65.45
71384;BME280;61466;52.166;5.004;2023-01-10T04:25:34;101505.03;;;9.49;65.64
71384;BME280;61466;52.166;5.004;2023-01-10T04:28:00;101512.22;;;9.48;65.46
71384;BME280;61466;52.166;5.004;2023-01-10T04:30:25;101521.06;;;9.49;65.42
71384;BME280;61466;52.166;5.004;2023-01-10T04:32:51;101520.72;;;9.45;65.43
71384;BME280;61466;52.166;5.004;2023-01-10T04:35:16;101522.75;;;9.38;65.35
71384;BME280;61466;52.166;5.004;2023-01-10T04:37:42;101527.25;;;9.37;65.45
71384;BME280;61466;52.166;5.004;2023-01-10T04:40:08;101528.31;;;9.36;65.42
71384;BME280;61466;52.166;5.004;2023-01-10T04:42:34;101524.97;;;9.29;65.40
71384;BME280;61466;52.166;5.004;2023-01-10T04:44:59;101527.66;;;9.29;65.46
71384;BME280;61466;52.166;5.004;2023-01-10T04:47:24;101533.38;;;9.21;65.51
71384;BME280;61466;52.166;5.004;2023-01-10T04:49:50;101543.00;;;9.22;65.61
71384;BME280;61466;52.166;5.004;2023-01-10T04:52:15;101534.53;;;9.13;65.50
71384;BME280;61466;52.166;5.004;2023-01-10T04:54:40;101539.88;;;9.13;65.82
71384;BME280;61466;52.166;5.004;2023-01-10T04:57:06;101528.53;;;9.06;65.57
71384;BME280;61466;52.166;5.004;2023-01-10T04:59:31;101530.88;;;9.02;65.59
71384;BME280;61466;52.166;5.004;2023-01-10T05:01:57;101529.50;;;9.00;65.93
71384;BME280;61466;52.166;5.004;2023-01-10T05:04:23;101511.53;;;8.95;65.56
71384;BME280;61466;52.166;5.004;2023-01-10T05:06:48;101531.44;;;9.05;65.64
71384;BME280;61466;52.166;5.004;2023-01-10T05:09:14;101541.53;;;9.02;65.61
71384;BME280;61466;52.166;5.004;2023-01-10T05:11:39;101554.31;;;9.00;65.53
71384;BME280;61466;52.166;5.004;2023-01-10T05:14:05;101558.75;;;8.95;65.52
71384;BME280;61466;52.166;5.004;2023-01-10T05:16:30;101573.94;;;8.94;65.40
71384;BME280;61466;52.166;5.004;2023-01-10T05:18:56;101572.09;;;8.83;65.77
71384;BME280;61466;52.166;5.004;2023-01-10T05:21:21;101574.66;;;8.78;66.03
71384;BME280;61466;52.166;5.004;2023-01-10T05:23:47;101578.72;;;8.69;66.15
71384;BME280;61466;52.166;5.004;2023-01-10T05:26:17;101587.78;;;8.68;65.92
71384;BME280;61466;52.166;5.004;2023-01-10T05:28:43;101586.97;;;8.67;65.85
71384;BME280;61466;52.166;5.004;2023-01-10T05:31:11;101592.53;;;8.66;66.39
71384;BME280;61466;52.166;5.004;2023-01-10T05:33:37;101590.09;;;8.64;66.26
71384;BME280;61466;52.166;5.004;2023-01-10T05:36:04;101596.22;;;8.65;66.24
71384;BME280;61466;52.166;5.004;2023-01-10T05:38:31;101594.84;;;8.62;66.60
71384;BME280;61466;52.166;5.004;2023-01-10T05:40:57;101588.47;;;8.63;66.45
71384;BME280;61466;52.166;5.004;2023-01-10T05:43:24;101596.13;;;8.71;66.13
71384;BME280;61466;52.166;5.004;2023-01-10T05:45:50;101608.06;;;8.69;66.32
71384;BME280;61466;52.166;5.004;2023-01-10T05:48:16;101614.56;;;8.73;66.01
71384;BME280;61466;52.166;5.004;2023-01-10T05:50:41;101621.63;;;8.79;65.97
71384;BME280;61466;52.166;5.004;2023-01-10T05:53:06;101614.91;;;8.76;66.20
71384;BME280;61466;52.166;5.004;2023-01-10T05:55:32;101613.41;;;8.80;65.88
71384;BME280;61466;52.166;5.004;2023-01-10T05:57:58;101607.84;;;8.82;65.74
71384;BME280;61466;52.166;5.004;2023-01-10T06:00:24;101613.63;;;8.79;66.06
71384;BME280;61466;52.166;5.004;2023-01-10T06:02:50;101609.34;;;8.78;66.10
71384;BME280;61466;52.166;5.004;2023-01-10T06:05:15;101621.06;;;8.77;66.26
71384;BME280;61466;52.166;5.004;2023-01-10T06:07:40;101637.06;;;8.77;66.02
71384;BME280;61466;52.166;5.004;2023-01-10T06:10:06;101644.84;;;8.78;66.19
71384;BME280;61466;52.166;5.004;2023-01-10T06:12:32;101639.50;;;8.78;66.21
71384;BME280;61466;52.166;5.004;2023-01-10T06:14:57;101634.75;;;8.80;65.90
71384;BME280;61466;52.166;5.004;2023-01-10T06:17:22;101644.13;;;8.83;66.17
71384;BME280;61466;52.166;5.004;2023-01-10T06:19:48;101632.97;;;8.86;66.09
71384;BME280;61466;52.166;5.004;2023-01-10T06:22:13;101649.56;;;8.88;65.83
71384;BME280;61466;52.166;5.004;2023-01-10T06:24:38;101639.47;;;8.90;66.04
71384;BME280;61466;52.166;5.004;2023-01-10T06:27:04;101634.97;;;8.91;66.08
71384;BME280;61466;52.166;5.004;2023-01-10T06:29:30;101632.53;;;8.89;65.88
71384;BME280;61466;52.166;5.004;2023-01-10T06:31:55;101637.38;;;8.92;65.92
71384;BME280;61466;52.166;5.004;2023-01-10T06:34:21;101644.38;;;8.93;65.70
71384;BME280;61466;52.166;5.004;2023-01-10T06:36:46;101652.38;;;8.93;66.00
71384;BME280;61466;52.166;5.004;2023-01-10T06:39:12;101645.53;;;8.97;65.92
71384;BME280;61466;52.166;5.004;2023-01-10T06:41:37;101650.63;;;8.87;66.18
71384;BME280;61466;52.166;5.004;2023-01-10T06:44:02;101650.84;;;8.86;66.27
71384;BME280;61466;52.166;5.004;2023-01-10T06:46:28;101658.63;;;8.87;66.59
71384;BME280;61466;52.166;5.004;2023-01-10T06:48:53;101671.16;;;8.87;66.21
71384;BME280;61466;52.166;5.004;2023-01-10T06:51:18;101677.78;;;8.84;66.47
71384;BME280;61466;52.166;5.004;2023-01-10T06:53:44;101685.66;;;8.91;66.37
71384;BME280;61466;52.166;5.004;2023-01-10T06:56:09;101688.66;;;8.94;66.18
71384;BME280;61466;52.166;5.004;2023-01-10T06:58:36;101681.03;;;8.98;66.20
71384;BME280;61466;52.166;5.004;2023-01-10T07:01:04;101683.78;;;9.03;66.25
71384;BME280;61466;52.166;5.004;2023-01-10T07:03:30;101674.41;;;9.00;66.44
71384;BME280;61466;52.166;5.004;2023-01-10T07:05:59;101679.50;;;9.02;66.62
71384;BME280;61466;52.166;5.004;2023-01-10T07:08:25;101658.72;;;8.92;66.22
71384;BME280;61466;52.166;5.004;2023-01-10T07:10:50;101692.72;;;9.09;66.47
71384;BME280;61466;52.166;5.004;2023-01-10T07:13:15;101689.34;;;9.13;66.41
71384;BME280;61466;52.166;5.004;2023-01-10T07:15:41;101705.50;;;9.18;66.26
71384;BME280;61466;52.166;5.004;2023-01-10T07:18:06;101703.63;;;9.19;66.22
71384;BME280;61466;52.166;5.004;2023-01-10T07:20:31;101719.06;;;9.17;66.51
71384;BME280;61466;52.166;5.004;2023-01-10T07:22:58;101723.63;;;9.16;66.59
71384;BME280;61466;52.166;5.004;2023-01-10T07:25:26;101730.78;;;9.16;66.86
71384;BME280;61466;52.166;5.004;2023-01-10T07:27:51;101730.47;;;9.12;66.98
71384;BME280;61466;52.166;5.004;2023-01-10T07:30:20;101733.22;;;9.17;66.57
71384;BME280;61466;52.166;5.004;2023-01-10T07:32:52;101734.75;;;9.13;66.63
71384;BME280;61466;52.166;5.004;2023-01-10T07:35:17;101729.19;;;9.15;66.70
71384;BME280;61466;52.166;5.004;2023-01-10T07:37:42;101727.22;;;9.10;66.59
71384;BME280;61466;52.166;5.004;2023-01-10T07:40:08;101734.38;;;9.10;66.93
71384;BME280;61466;52.166;5.004;2023-01-10T07:42:33;101742.88;;;9.07;66.92
71384;BME280;61466;52.166;5.004;2023-01-10T07:44:59;101741.69;;;9.02;67.12
71384;BME280;61466;52.166;5.004;2023-01-10T07:47:24;101741.94;;;9.01;67.06
71384;BME280;61466;52.166;5.004;2023-01-10T07:49:49;101741.00;;;8.95;67.08
71384;BME280;61466;52.166;5.004;2023-01-10T07:52:15;101742.97;;;9.00;66.79
71384;BME280;61466;52.166;5.004;2023-01-10T07:54:40;101742.03;;;8.94;66.72
71384;BME280;61466;52.166;5.004;2023-01-10T07:57:05;101756.88;;;8.90;66.82
71384;BME280;61466;52.166;5.004;2023-01-10T07:59:31;101745.19;;;8.91;66.52
71384;BME280;61466;52.166;5.004;2023-01-10T08:01:56;101751.53;;;8.90;66.62
71384;BME280;61466;52.166;5.004;2023-01-10T08:04:22;101757.13;;;8.89;66.46
71384;BME280;61466;52.166;5.004;2023-01-10T08:06:47;101753.88;;;8.87;66.72
71384;BME280;61466;52.166;5.004;2023-01-10T08:09:12;101757.00;;;8.84;66.71
71384;BME280;61466;52.166;5.004;2023-01-10T08:11:38;101758.84;;;8.83;66.49
71384;BME280;61466;52.166;5.004;2023-01-10T08:14:03;101778.59;;;8.82;66.35
71384;BME280;61466;52.166;5.004;2023-01-10T08:16:28;101779.19;;;8.84;66.30
71384;BME280;61466;52.166;5.004;2023-01-10T08:18:54;101774.06;;;8.82;66.38
71384;BME280;61466;52.166;5.004;2023-01-10T08:21:19;101782.66;;;8.85;66.63
71384;BME280;61466;52.166;5.004;2023-01-10T08:23:44;101770.00;;;8.80;66.54
71384;BME280;61466;52.166;5.004;2023-01-10T08:26:10;101757.09;;;8.77;66.57
71384;BME280;61466;52.166;5.004;2023-01-10T08:28:35;101767.19;;;8.75;66.42
71384;BME280;61466;52.166;5.004;2023-01-10T08:31:08;101769.16;;;8.68;66.42
71384;BME280;61466;52.166;5.004;2023-01-10T08:33:33;101773.31;;;8.64;66.69
71384;BME280;61466;52.166;5.004;2023-01-10T08:36:00;101767.97;;;8.64;66.74
71384;BME280;61466;52.166;5.004;2023-01-10T08:38:26;101764.72;;;8.61;66.44
71384;BME280;61466;52.166;5.004;2023-01-10T08:40:55;101757.31;;;8.64;66.68
71384;BME280;61466;52.166;5.004;2023-01-10T08:43:22;101760.56;;;8.66;66.84
71384;BME280;61466;52.166;5.004;2023-01-10T08:45:48;101754.09;;;8.73;66.55
71384;BME280;61466;52.166;5.004;2023-01-10T08:48:14;101757.09;;;8.77;66.30
71384;BME280;61466;52.166;5.004;2023-01-10T08:50:39;101749.69;;;8.79;66.39
71384;BME280;61466;52.166;5.004;2023-01-10T08:53:05;101753.16;;;8.79;66.18
71384;BME280;61466;52.166;5.004;2023-01-10T08:55:31;101741.69;;;8.79;66.55
71384;BME280;61466;52.166;5.004;2023-01-10T08:57:59;101750.84;;;8.83;66.48
71384;BME280;61466;52.166;5.004;2023-01-10T09:00:25;101761.31;;;8.85;66.31
71384;BME280;61466;52.166;5.004;2023-01-10T09:02:50;101760.25;;;8.86;66.20
71384;BME280;61466;52.166;5.004;2023-01-10T09:05:16;101762.09;;;8.85;66.39
71384;BME280;61466;52.166;5.004;2023-01-10T09:07:41;101760.59;;;8.89;66.41
71384;BME280;61466;52.166;5.004;2023-01-10T09:10:07;101753.88;;;8.87;66.21
71384;BME280;61466;52.166;5.004;2023-01-10T09:12:33;101752.03;;;8.87;66.08
71384;BME280;61466;52.166;5.004;2023-01-10T09:15:17;101753.03;;;8.86;66.30
71384;BME280;61466;52.166;5.004;2023-01-10T09:17:43;101753.03;;;8.86;66.08
71384;BME280;61466;52.166;5.004;2023-01-10T09:20:09;101737.03;;;8.86;65.97
71384;BME280;61466;52.166;5.004;2023-01-10T09:22:38;101743.22;;;8.87;65.90
71384;BME280;61466;52.166;5.004;2023-01-10T09:25:04;101742.38;;;8.86;66.07
71384;BME280;61466;52.166;5.004;2023-01-10T09:27:31;101734.50;;;8.91;65.85
71384;BME280;61466;52.166;5.004;2023-01-10T09:29:56;101731.25;;;8.89;66.02
71384;BME280;61466;52.166;5.004;2023-01-10T09:32:22;101740.28;;;8.88;66.10
71384;BME280;61466;52.166;5.004;2023-01-10T09:34:47;101741.81;;;8.84;66.09
71384;BME280;61466;52.166;5.004;2023-01-10T09:37:12;101737.50;;;8.83;66.25
71384;BME280;61466;52.166;5.004;2023-01-10T09:39:38;101739.59;;;8.81;66.16
71384;BME280;61466;52.166;5.004;2023-01-10T09:42:21;101746.00;;;8.80;66.15
71384;BME280;61466;52.166;5.004;2023-01-10T09:45:16;101742.16;;;8.76;66.26
71384;BME280;61466;52.166;5.004;2023-01-10T09:47:52;101741.09;;;8.77;66.21
71384;BME280;61466;52.166;5.004;2023-01-10T09:53:02;101741.09;;;8.77;66.33
71384;BME280;61466;52.166;5.004;2023-01-10T09:55:31;101747.59;;;8.81;65.95
71384;BME280;61466;52.166;5.004;2023-01-10T09:58:02;101756.88;;;8.78;66.21
71384;BME280;61466;52.166;5.004;2023-01-10T10:00:47;101748.28;;;8.76;66.04
71384;BME280;61466;52.166;5.004;2023-01-10T10:03:23;101734.75;;;8.78;66.12
71384;BME280;61466;52.166;5.004;2023-01-10T10:05:51;101735.31;;;8.80;66.04
71384;BME280;61466;52.166;5.004;2023-01-10T10:08:18;101737.97;;;8.80;65.87
71384;BME280;61466;52.166;5.004;2023-01-10T10:10:50;101728.94;;;8.81;65.79
71384;BME280;61466;52.166;5.004;2023-01-10T10:19:15;101734.16;;;8.88;65.71
71384;BME280;61466;52.166;5.004;2023-01-10T10:24:38;101737.03;;;8.86;65.59
71384;BME280;61466;52.166;5.004;2023-01-10T10:27:18;101733.69;;;8.91;65.42
71384;BME280;61466;52.166;5.004;2023-01-10T10:30:03;101728.38;;;8.91;65.31
71384;BME280;61466;52.166;5.004;2023-01-10T10:35:03;101708.63;;;8.92;65.26
71384;BME280;61466;52.166;5.004;2023-01-10T10:37:36;101715.34;;;8.94;65.10
71384;BME280;61466;52.166;5.004;2023-01-10T10:42:41;101718.94;;;8.88;65.26
71384;BME280;61466;52.166;5.004;2023-01-10T10:45:28;101708.28;;;8.88;65.20
71384;BME280;61466;52.166;5.004;2023-01-10T10:48:20;101702.94;;;8.88;65.21
71384;BME280;61466;52.166;5.004;2023-01-10T10:50:51;101702.13;;;8.88;65.11
71384;BME280;61466;52.166;5.004;2023-01-10T10:53:19;101702.72;;;8.90;65.24
71384;BME280;61466;52.166;5.004;2023-01-10T10:55:45;101694.47;;;8.91;65.17
71384;BME280;61466;52.166;5.004;2023-01-10T10:58:11;101693.44;;;8.92;65.03
71384;BME280;61466;52.166;5.004;2023-01-10T11:00:39;101678.47;;;8.91;65.33
71384;BME280;61466;52.166;5.004;2023-01-10T11:05:49;101670.00;;;8.94;64.99
71384;BME280;61466;52.166;5.004;2023-01-10T11:08:16;101668.38;;;8.93;65.20
71384;BME280;61466;52.166;5.004;2023-01-10T11:10:48;101662.34;;;8.98;65.03
71384;BME280;61466;52.166;5.004;2023-01-10T11:13:28;101656.31;;;9.02;65.13
71384;BME280;61466;52.166;5.004;2023-01-10T11:15:55;101659.31;;;9.06;64.87
71384;BME280;61466;52.166;5.004;2023-01-10T11:18:23;101648.38;;;9.08;65.17
71384;BME280;61466;52.166;5.004;2023-01-10T11:20:59;101655.94;;;9.11;64.96
71384;BME280;61466;52.166;5.004;2023-01-10T11:23:42;101647.13;;;9.10;64.89
71384;BME280;61466;52.166;5.004;2023-01-10T11:26:35;101643.97;;;9.13;64.84
71384;BME280;61466;52.166;5.004;2023-01-10T11:29:25;101634.38;;;9.12;64.61
71384;BME280;61466;52.166;5.004;2023-01-10T11:31:52;101633.06;;;9.15;64.76
71384;BME280;61466;52.166;5.004;2023-01-10T11:34:25;101632.84;;;9.16;64.57
71384;BME280;61466;52.166;5.004;2023-01-10T11:37:02;101629.34;;;9.16;64.63
71384;BME280;61466;52.166;5.004;2023-01-10T11:39:28;101628.09;;;9.18;64.55
71384;BME280;61466;52.166;5.004;2023-01-10T11:41:55;101623.78;;;9.17;64.54
71384;BME280;61466;52.166;5.004;2023-01-10T11:44:23;101632.00;;;9.28;64.39
71384;BME280;61466;52.166;5.004;2023-01-10T11:46:54;101623.28;;;9.32;64.42
71384;BME280;61466;52.166;5.004;2023-01-10T11:49:40;101622.94;;;9.29;64.33
71384;BME280;61466;52.166;5.004;2023-01-10T11:54:49;101608.56;;;9.30;64.55
71384;BME280;61466;52.166;5.004;2023-01-10T11:57:20;101601.94;;;9.32;64.58
71384;BME280;61466;52.166;5.004;2023-01-10T11:59:53;101594.00;;;9.37;64.30
71384;BME280;61466;52.166;5.004;2023-01-10T12:02:26;101596.09;;;9.35;64.04
71384;BME280;61466;52.166;5.004;2023-01-10T12:04:54;101596.22;;;9.40;64.29
71384;BME280;61466;52.166;5.004;2023-01-10T12:07:21;101591.44;;;9.42;64.28
71384;BME280;61466;52.166;5.004;2023-01-10T12:09:54;101586.91;;;9.43;64.11
71384;BME280;61466;52.166;5.004;2023-01-10T12:12:29;101579.63;;;9.38;64.36
71384;BME280;61466;52.166;5.004;2023-01-10T12:14:56;101553.06;;;9.32;63.97
71384;BME280;61466;52.166;5.004;2023-01-10T12:17:24;101564.25;;;9.46;64.15
71384;BME280;61466;52.166;5.004;2023-01-10T12:19:51;101569.13;;;9.49;64.25
71384;BME280;61466;52.166;5.004;2023-01-10T12:22:20;101552.53;;;9.47;64.18
71384;BME280;61466;52.166;5.004;2023-01-10T12:24:49;101551.97;;;9.45;64.01
71384;BME280;61466;52.166;5.004;2023-01-10T12:27:16;101542.88;;;9.46;64.05
71384;BME280;61466;52.166;5.004;2023-01-10T12:30:02;101543.69;;;9.46;63.92
71384;BME280;61466;52.166;5.004;2023-01-10T12:32:35;101540.44;;;9.44;64.18
71384;BME280;61466;52.166;5.004;2023-01-10T12:35:06;101541.28;;;9.45;64.07
71384;BME280;61466;52.166;5.004;2023-01-10T12:38:01;101544.19;;;9.43;64.14
71384;BME280;61466;52.166;5.004;2023-01-10T12:40:42;101549.75;;;9.41;64.29
71384;BME280;61466;52.166;5.004;2023-01-10T12:43:17;101534.53;;;9.42;64.08
71384;BME280;61466;52.166;5.004;2023-01-10T12:46:11;101527.34;;;9.42;64.11
71384;BME280;61466;52.166;5.004;2023-01-10T12:48:46;101528.97;;;9.43;64.20
71384;BME280;61466;52.166;5.004;2023-01-10T12:51:17;101520.72;;;9.45;64.20
71384;BME280;61466;52.166;5.004;2023-01-10T12:53:51;101515.63;;;9.43;64.16
71384;BME280;61466;52.166;5.004;2023-01-10T12:56:18;101509.81;;;9.47;64.09
71384;BME280;61466;52.166;5.004;2023-01-10T12:58:59;101493.69;;;9.41;64.24
71384;BME280;61466;52.166;5.004;2023-01-10T13:01:34;101489.47;;;9.46;63.99
71384;BME280;61466;52.166;5.004;2023-01-10T13:04:06;101490.03;;;9.48;64.07
71384;BME280;61466;52.166;5.004;2023-01-10T13:06:36;101481.06;;;9.54;64.13
71384;BME280;61466;52.166;5.004;2023-01-10T13:09:08;101484.09;;;9.57;64.17
71384;BME280;61466;52.166;5.004;2023-01-10T13:11:43;101475.81;;;9.59;64.03
71384;BME280;61466;52.166;5.004;2023-01-10T13:14:14;101472.09;;;9.60;63.92
71384;BME280;61466;52.166;5.004;2023-01-10T13:22:40;101440.50;;;9.57;63.94
71384;BME280;61466;52.166;5.004;2023-01-10T13:25:18;101453.06;;;9.56;64.07
71384;BME280;61466;52.166;5.004;2023-01-10T13:27:45;101447.25;;;9.59;64.13
71384;BME280;61466;52.166;5.004;2023-01-10T13:30:42;101450.97;;;9.58;63.99
71384;BME280;61466;52.166;5.004;2023-01-10T13:33:22;101443.84;;;9.64;63.95
71384;BME280;61466;52.166;5.004;2023-01-10T13:35:48;101437.44;;;9.65;64.09
71384;BME280;61466;52.166;5.004;2023-01-10T13:38:28;101439.88;;;9.67;64.14
71384;BME280;61466;52.166;5.004;2023-01-10T13:41:08;101429.75;;;9.69;63.99
71384;BME280;61466;52.166;5.004;2023-01-10T13:51:26;101416.16;;;9.70;63.84
71384;BME280;61466;52.166;5.004;2023-01-10T13:54:26;101411.94;;;9.74;64.28
71384;BME280;61466;52.166;5.004;2023-01-10T13:56:52;101420.03;;;9.79;64.04
71384;BME280;61466;52.166;5.004;2023-01-10T14:02:21;101399.31;;;9.70;64.55
71384;BME280;61466;52.166;5.004;2023-01-10T14:05:02;101386.47;;;9.67;64.68
71384;BME280;61466;52.166;5.004;2023-01-10T14:07:49;101381.34;;;9.65;65.08
71384;BME280;61466;52.166;5.004;2023-01-10T14:12:58;101370.09;;;9.63;65.04
71384;BME280;61466;52.166;5.004;2023-01-10T14:15:37;101357.72;;;9.57;65.84
71384;BME280;61466;52.166;5.004;2023-01-10T14:18:07;101357.72;;;9.57;65.90
71384;BME280;61466;52.166;5.004;2023-01-10T14:20:40;101358.56;;;9.57;65.88
71384;BME280;61466;52.166;5.004;2023-01-10T14:23:17;101346.00;;;9.58;65.62